Terminal Aerodrome Forecast
Issued by NWS

Home | Current Version | Previous Version | Text Only | Print | Product List | Glossary On
Versions: 1 2 3 4 5 6 7 8 9 10 11 12 13 14 15
000
FTUS46 KEKA 100500
TAFUKI
TAF
KUKI 100526Z 1006/1106 18006KT P6SM SKC
     FM100900 VRB03KT P6SM SKC
     FM102000 16008KT P6SM SKC
     FM110300 VRB03KT P6SM SKC=

USA.gov is the U.S. government's official web portal to all federal, state and local government web resources and services.